Atlantic - Newfoundland: Past 24 Hour Conditions

 

St. John's Int'l Airport

10:30 PM NDT 21 October 2018
Disclaimer

This table is a summary of hourly weather conditions for the past 24 hours.
Please note that these observations might not always be representative of weather conditions over their associated marine area.

Date / Time
(NDT)
Wind(knots) Conditions Visibility(km) Pressure(kPa) Air tempC) Relative humidity(%) Dew pointC)
21 October 2018
22:30 S 23 gust 42 Mist 6 100.2 14 98 13
21:30 S 25 gust 37 Mist 10 100.2 14 96 13
20:30 S 25 gust 37 Cloudy 24 100.3 13 93 12
19:30 S 30 gust 40 Cloudy 24 100.4 14 93 12
18:30 S 28 gust 37 Cloudy 19 100.4 14 95 13
17:30 S 22 gust 36 Light Rain 19 100.5 14 96 13
16:30 SSW 26 gust 41 Light Rain 16 100.6 13 97 13
15:30 SSW 26 gust 41 Mist 10 100.6 13 98 13
14:30 S 28 gust 38 Light Drizzle 10 100.7 13 98 13
13:30 SSW 27 gust 37 Light Rain 2 100.9 13 100 13
12:30 SSW 31 gust 42 Light Drizzle and Fog 0.8 101.0 12 100 12
11:30 SSW 27 gust 37 Light Drizzle and Fog 0.6 101.0 12 100 12
10:30 SSW 25 gust 37 Light Drizzle and Fog 0.4 101.2 11 100 11
9:30 S 26 gust 37 Light Drizzle and Fog 0.4 101.2 11 99 11
8:30 S 26 gust 41 Light Drizzle 2 101.3 11 99 11
7:30 S 32 gust 41 Light Drizzle 6 101.3 11 99 11
6:30 S 32 gust 40 Light Drizzle 19 101.3 11 96 10
5:30 S 31 gust 43 Cloudy 24 101.4 11 94 10
4:30 S 32 gust 48 Cloudy 24 101.5 11 92 10
3:30 S 26 gust 41 Cloudy 24 101.5 11 92 9
2:30 S 31 gust 46 Cloudy 24 101.6 11 90 9
1:30 SSW 27 gust 41 Cloudy 24 101.7 11 90 9
0:30 S 28 gust 35 Cloudy 24 101.8 10 94 9
20 October 2018
23:30 S 22 gust 32 Cloudy 24 101.9 10 93 8
22:30 S 30 gust 38 Cloudy 24 102.0 10 91 8

Zoom-in to make a selection

Map of Atlantic - Newfoundland marine weather areas Banquereau - 44139 Blanc-Sablon Airport Cap Whittle Chevery Natashquan Airport Heath Point Îles de la Madeleine Airport Miscou Island Eskasoni (First Nations) Grand Étang Ingonish Beach North Mountain St.Paul Island J.A. Douglas McCurdy Sydney Airport Charlottetown Airport East Point North Cape Argentia Bonavista Burgeo Cape Race Corner Brook Daniel's Harbour Englee Ferolle Point La Scie Port aux Basques Rocky Harbour Sagona Island St. Anthony Airport St. John's Int'l Airport St. Lawrence Stephenville Airport Twillingate Winterland Wreckhouse Grates Cove Pool's Island Marticot Island Long Pond Cartwright Airport Mary's Harbour
Legend:
buoy Buoy
land station Land Station

Atlantic - Newfoundland Area

Another Region

What we are doing

Date modified: